Historyczne dane pomiarowe

Dodano dane terminowe – wersja testowa.

Dane z okresu 1951-2019

Wersja bazy: 1.34 [2019-03-16, lista zmian], aktualizacja planowana na 2019-04-15

Dane meteo z obszaru Polski uzyskane na podstawie danych udostępnionych przez Instytut Meteorologii i Gospodarki Wodnej – Państwowy Instytut Badawczy.

 

Wybierz Datę:    

       

TemperaturaWilgotnośćWiatrCiśnienieOpadyŚniegCzas trwania zjawisk
 Stacja t tx tn tng RH VA  wxwx mslp ppp RRR   cm mm wxwxwxwxwxwxwx
1987-08-14 15.4 21.4 10.0- 69.5- 4.3 4.7---- 0.0------------
1987-08-13 11.7 17.5 4.8- 76.5- 4.7 3.3---- 0.0------------
1987-08-12 12.2 18.2 6.8- 76.0- 6.3 5.3---- 0.0------------
1987-08-11 13.8 18.4 11.5- 74.5- 6.3 8.7---- 0.0------------
1987-08-10 15.8 18.0 12.4- 73.3- 7.7 4.0---- 6.1------------
1987-08-09 14.8 23.5 5.4- 67.0- 3.0 3.7---- 0.0------------
1987-08-08 13.1 19.0 6.9- 77.8- 4.3 2.7---- 0.0------------
1987-08-07 12.0 18.8 5.4- 72.5- 5.0 5.3---- 0.1------------
1987-08-06 11.0 16.2 9.8- 88.0- 7.0 4.3---- 3.6------------
1987-08-05 13.7 17.6 11.0- 79.5- 7.7 2.0---- 2.5------------
1987-08-04 14.1 20.0 9.5- 93.8- 7.0 3.3---- 7.3------------
1987-08-03 14.5 19.8 9.8- 75.3- 6.0 4.7---- 0.0------------
1987-08-02 14.7 19.0 13.9- 79.3- 6.3 3.3---- 1.5------------
1987-08-01 15.5 22.0 11.9- 78.5- 4.7 1.7---- 3.2------------
1987-07-31 17.3 24.0 11.5- 69.5- 7.3 4.7---- 9.2------------
1987-07-30 16.2 23.0 9.2- 66.8- 6.0 3.7---- 0.0------------
1987-07-29 13.7 19.3 9.8- 75.5- 6.0 3.3---- 0.0------------
1987-07-28 13.2 15.6 11.0- 78.8- 7.0 5.3---- 4.5------------
1987-07-27 13.6 19.0 9.0- 67.0- 5.3 6.0---- 0.6------------
1987-07-26 15.7 20.0 12.3- 91.5- 8.0 2.0---- 5.4------------
1987-07-25 19.4 24.5 15.8- 86.0- 5.3 2.0---- 9.7------------
1987-07-24 21.4 28.9 15.0- 79.8- 5.3 4.7---- 4.8------------
1987-07-23 21.9 28.4 14.9- 75.5- 4.3 0.7---- 0.0------------
1987-07-22 20.9 27.3 13.9- 76.3- 3.7 5.3---- 0.0------------
1987-07-21 21.4 28.6 14.9- 72.8- 4.0 1.3---- 0.0------------
1987-07-20 23.4 30.4 16.0- 72.5- 4.3 4.0---- 0.0------------
1987-07-19 23.6 31.4 15.3- 82.8- 4.0 5.3---- 0.0------------
1987-07-18 23.6 29.4 15.8- 80.8- 3.0 5.3---- 0.0------------
1987-07-17 21.7 29.9 12.9- 81.3- 5.7 4.7---- 0.0------------
1987-07-16 18.1 26.9 8.6- 85.3- 4.7 2.7---- 0.0------------
1987-07-15 15.2 22.5 5.9- 82.5- 1.3 4.7---- 0.0------------
1987-07-14 17.5 21.6 12.7- 75.3- 2.0 4.0---- 0.0------------
1987-07-13 19.2 24.4 15.8- 89.3- 5.7 1.3---- 0.0------------
1987-07-12 20.6 26.9 11.0- 72.8- 3.0 10.7---- 4.1------------
1987-07-11 15.8 23.0 5.9- 74.8- 2.0 3.3---- 0.0------------
1987-07-10 15.7 19.0 12.7- 79.0- 3.0 4.7---- 0.0------------
1987-07-09 21.9 27.7 14.9- 69.5- 4.3 7.3---- 10.5------------
1987-07-08 20.0 27.4 7.8- 62.8- 0.0 6.7---- 0.0------------
1987-07-07 16.0 24.4 5.4- 69.5- 0.0 2.7---- 0.0------------
1987-07-06 15.4 21.4 8.5- 76.0- 0.7 3.3---- 0.0------------
1987-07-05 15.6 20.0 11.5- 80.3- 5.0 2.7---- 0.0------------
1987-07-04 19.0 23.5 15.6- 72.0- 6.3 2.7---- 0.0------------
1987-07-03 19.4 22.2 16.3- 68.8- 6.3 5.3---- 0.0------------
1987-07-02 20.3 26.4 15.3- 90.5- 7.3 2.0---- 0.0------------
1987-07-01 23.3 30.4 13.9- 76.8- 0.3 2.0---- 0.0------------
1987-06-30 21.4 28.4 11.7- 80.0- 1.7 1.3---- 0.0------------
1987-06-29 19.6 24.5 14.4- 81.3- 4.3 2.0---- 0.0------------
1987-06-28 18.7 24.6 13.4- 83.3- 5.7 2.3---- 0.0------------
1987-06-27 19.4 25.1 11.0- 77.8- 5.7 1.3---- 0.0------------
1987-06-26 15.5 23.0 5.4- 77.8- 2.0 4.0---- 0.0------------
1987-06-25 15.0 19.6 10.8- 77.8- 6.0 5.3---- 2.9------------
1987-06-24 15.4 21.5 10.5- 86.0- 5.3 2.7---- 0.0------------
1987-06-23 15.7 20.4 11.0- 88.8- 6.7 4.0---- 0.0------------
1987-06-22 16.7 23.2 10.5- 84.3- 5.0 2.3---- 0.0------------
1987-06-21 14.9 23.2 6.9- 85.8- 4.0 3.0---- 0.6------------
1987-06-20 14.0 21.0 4.7- 75.5- 1.7 2.0---- 0.0------------
1987-06-19 11.5 17.6 6.4- 84.5- 4.7 1.3---- 0.8------------
1987-06-18 10.5 18.5 3.4- 86.3- 4.0 4.0---- 8.0------------
1987-06-17 11.3 14.9 9.6- 88.8- 6.7 2.7---- 2.3------------
1987-06-16 17.6 24.0 12.4- 73.0- 7.7 7.3---- 13.7------------
387.4 ms

 

Źródłem pochodzenia danych jest Instytut Meteorologii i Gospodarki Wodnej – Państwowy Instytut Badawczy. Dane Instytutu Meteorologii i Gospodarki Wodnej – Państwowego Instytutu Badawczego zostały przetworzone.

Dane źródłowe można odnaleźć na stronie https://dane.imgw.pl